Time;durP1;ratioP1;P1;durP2;ratioP2;P2;SDS_P1;SDS_P2;PMS_P1;PMS_P2;Temp;Humidity;BMP_temperature;BMP_pressure;BME280_temperature;BME280_humidity;BME280_pressure;Samples;Min_cycle;Max_cycle;Signal;HPM_P1;HPM_P2
2023/05/28 00:00:00;;;;;;;7.80;5.87;;;22.90;67.60;;;;;;5077207;28;20390;-86
2023/05/28 00:02:26;;;;;;;8.17;4.63;;;22.80;67.40;;;;;;5042985;28;20469;-87
2023/05/28 00:04:56;;;;;;;5.10;4.40;;;22.80;67.40;;;;;;5043491;28;20440;-87
2023/05/28 00:07:25;;;;;;;5.33;4.70;;;22.80;67.50;;;;;;5042912;28;20894;-87
2023/05/28 00:09:51;;;;;;;5.90;5.20;;;22.80;67.50;;;;;;5059584;28;20609;-87
2023/05/28 00:12:17;;;;;;;5.70;4.87;;;22.80;67.50;;;;;;5026640;28;20429;-87
2023/05/28 00:14:43;;;;;;;5.67;4.97;;;22.70;67.50;;;;;;5042791;28;20246;-87
2023/05/28 00:17:11;;;;;;;7.20;4.90;;;22.70;67.50;;;;;;5059433;28;20410;-86
2023/05/28 00:19:40;;;;;;;6.20;4.60;;;22.70;67.50;;;;;;5059721;28;20176;-87
2023/05/28 00:22:05;;;;;;;5.93;4.60;;;22.70;67.60;;;;;;5026289;28;20430;-87
2023/05/28 00:24:34;;;;;;;5.80;4.80;;;22.70;67.60;;;;;;5043072;28;20457;-87
2023/05/28 00:27:00;;;;;;;6.37;4.67;;;22.60;67.60;;;;;;5059366;28;20457;-87
2023/05/28 00:29:29;;;;;;;5.37;4.20;;;22.60;67.50;;;;;;5059558;28;20186;-87
2023/05/28 00:31:56;;;;;;;7.00;5.33;;;22.60;67.60;;;;;;5059178;28;20563;-87
2023/05/28 00:34:26;;;;;;;7.57;4.43;;;22.60;67.60;;;;;;5058858;28;20480;-87
2023/05/28 00:36:53;;;;;;;6.47;4.43;;;22.60;67.60;;;;;;5059298;28;20410;-86
2023/05/28 00:39:19;;;;;;;6.57;4.63;;;22.50;67.60;;;;;;5025945;28;20765;-87
2023/05/28 00:41:46;;;;;;;8.70;4.10;;;22.50;67.60;;;;;;5058337;28;20420;-87
2023/05/28 00:44:12;;;;;;;5.80;4.83;;;22.50;67.60;;;;;;5042190;28;20913;-87
2023/05/28 00:46:44;;;;;;;6.47;4.80;;;22.50;67.70;;;;;;5042153;28;20799;-87
2023/05/28 00:49:13;;;;;;;10.13;5.47;;;22.50;67.80;;;;;;5059178;28;20495;-87
2023/05/28 00:51:41;;;;;;;4.77;4.27;;;22.40;67.70;;;;;;5059168;28;20721;-87
2023/05/28 00:54:08;;;;;;;7.30;4.50;;;22.40;67.70;;;;;;5025397;28;20462;-86
2023/05/28 00:56:34;;;;;;;5.70;4.73;;;22.40;67.80;;;;;;5058374;28;20429;-87
2023/05/28 00:59:04;;;;;;;6.03;4.30;;;22.40;67.80;;;;;;5042388;28;20466;-87
2023/05/28 01:01:30;;;;;;;7.47;4.90;;;22.40;67.90;;;;;;5042261;28;20418;-86
2023/05/28 01:04:01;;;;;;;6.17;4.73;;;22.30;67.90;;;;;;5025284;28;20428;-87
2023/05/28 01:06:28;;;;;;;5.93;4.30;;;22.30;67.90;;;;;;5058472;28;20834;-87
2023/05/28 01:08:55;;;;;;;5.40;4.90;;;22.30;67.90;;;;;;5025555;28;20421;-87
2023/05/28 01:11:22;;;;;;;7.77;4.60;;;22.30;67.90;;;;;;5058241;28;20430;-87
2023/05/28 01:13:48;;;;;;;8.30;5.27;;;22.30;67.90;;;;;;5025229;28;20543;-87
2023/05/28 01:16:16;;;;;;;6.90;5.27;;;22.20;67.90;;;;;;5058445;28;20430;-86
2023/05/28 01:18:44;;;;;;;7.97;4.83;;;22.20;67.90;;;;;;5025689;28;20454;-87
2023/05/28 01:21:11;;;;;;;7.00;5.83;;;22.20;67.90;;;;;;5041715;28;20424;-87
2023/05/28 01:23:45;;;;;;;9.30;5.10;;;22.20;67.90;;;;;;5041628;28;20502;-87
2023/05/28 01:26:13;;;;;;;6.63;4.77;;;22.20;68.00;;;;;;5058355;28;20397;-87
2023/05/28 01:28:44;;;;;;;5.90;4.60;;;22.10;67.90;;;;;;5074665;28;20450;-87
2023/05/28 01:31:11;;;;;;;7.10;4.43;;;22.10;67.90;;;;;;5025111;28;20436;-87
2023/05/28 01:33:43;;;;;;;5.73;4.63;;;22.10;67.90;;;;;;5074760;28;20456;-87
2023/05/28 01:36:18;;;;;;;4.80;4.23;;;22.10;67.90;;;;;;5075317;28;20975;-87
2023/05/28 01:38:50;;;;;;;6.43;4.33;;;22.00;67.90;;;;;;5025209;28;20436;-87
2023/05/28 01:41:16;;;;;;;6.73;5.20;;;22.00;68.00;;;;;;5041281;28;20429;-86
2023/05/28 01:43:44;;;;;;;5.30;4.63;;;22.00;68.00;;;;;;5057681;28;20539;-87
2023/05/28 01:46:10;;;;;;;4.97;4.00;;;22.00;68.00;;;;;;5057889;28;20414;-87
2023/05/28 01:48:37;;;;;;;8.27;5.20;;;22.00;68.10;;;;;;5024597;28;20457;-87
2023/05/28 01:51:06;;;;;;;6.03;4.77;;;21.90;68.00;;;;;;5041316;28;20519;-87
2023/05/28 01:53:32;;;;;;;4.60;4.10;;;21.90;68.00;;;;;;5040402;28;20945;-87
2023/05/28 01:55:59;;;;;;;7.03;4.63;;;21.90;68.00;;;;;;5024728;28;20425;-87
2023/05/28 01:58:28;;;;;;;6.50;4.57;;;21.80;67.90;;;;;;5040806;28;20443;-87
2023/05/28 02:01:32;;;;;;;6.10;5.30;;;21.90;68.10;;;;;;5024857;28;20449;-86
2023/05/28 02:04:01;;;;;;;7.23;5.10;;;21.80;68.00;;;;;;4977790;28;20487;-87
2023/05/28 02:06:31;;;;;;;5.47;4.90;;;21.80;68.10;;;;;;5011091;28;20445;-86
2023/05/28 02:08:57;;;;;;;5.70;4.30;;;21.80;68.10;;;;;;5057605;28;20816;-87
2023/05/28 02:11:23;;;;;;;9.90;5.10;;;21.80;68.10;;;;;;5075106;28;20420;-86
2023/05/28 02:13:52;;;;;;;5.63;4.80;;;21.70;68.00;;;;;;5040509;28;20535;-87
2023/05/28 02:16:22;;;;;;;8.90;5.37;;;21.70;68.00;;;;;;5041320;28;20417;-87
2023/05/28 02:18:51;;;;;;;7.10;4.80;;;21.70;68.10;;;;;;5040785;28;20479;-87
2023/05/28 02:21:18;;;;;;;8.03;5.20;;;21.70;68.10;;;;;;5024515;28;20413;-86
2023/05/28 02:23:45;;;;;;;6.33;4.90;;;21.70;68.20;;;;;;5074791;28;20512;-87
2023/05/28 02:26:19;;;;;;;5.20;4.40;;;21.70;68.20;;;;;;5024874;28;20539;-87
2023/05/28 02:28:45;;;;;;;5.63;4.67;;;21.70;68.30;;;;;;5057499;28;20433;-87
2023/05/28 02:31:14;;;;;;;6.40;4.70;;;21.60;68.10;;;;;;5022728;28;20812;-87
2023/05/28 02:33:44;;;;;;;6.43;4.97;;;21.60;68.10;;;;;;5020904;28;20799;-86
2023/05/28 02:36:13;;;;;;;7.27;5.27;;;21.60;68.30;;;;;;5020894;28;20418;-87
2023/05/28 02:38:43;;;;;;;5.27;3.97;;;21.50;68.10;;;;;;5004511;28;20458;-87
2023/05/28 02:41:09;;;;;;;5.90;5.10;;;21.50;68.00;;;;;;5037333;28;20435;-87
2023/05/28 02:43:39;;;;;;;7.50;4.90;;;21.50;68.00;;;;;;5020609;28;20452;-86
2023/05/28 02:46:07;;;;;;;6.50;5.03;;;21.50;68.10;;;;;;5004942;28;20491;-87
2023/05/28 02:48:34;;;;;;;5.33;4.57;;;21.50;68.10;;;;;;5021142;28;20417;-87
2023/05/28 02:51:04;;;;;;;5.90;4.90;;;21.50;68.10;;;;;;5037060;28;20456;-87
2023/05/28 02:53:50;;;;;;;5.80;5.20;;;21.40;68.00;;;;;;5020846;28;20558;-87
2023/05/28 02:56:16;;;;;;;5.10;4.60;;;21.40;68.10;;;;;;5020536;28;20496;-87
2023/05/28 02:58:44;;;;;;;7.13;5.00;;;21.40;68.10;;;;;;5037049;28;20250;-87
2023/05/28 03:01:10;;;;;;;7.43;5.03;;;21.40;68.10;;;;;;5020642;28;20856;-87
2023/05/28 03:03:36;;;;;;;5.70;4.50;;;21.30;68.00;;;;;;5020552;28;20922;-87
2023/05/28 03:06:03;;;;;;;10.87;5.70;;;21.30;68.00;;;;;;5040281;28;20942;-87
2023/05/28 03:08:34;;;;;;;6.97;5.27;;;21.30;68.10;;;;;;5025101;28;20414;-87
2023/05/28 03:11:00;;;;;;;8.63;6.00;;;21.30;68.00;;;;;;5057367;28;20440;-87
2023/05/28 03:13:28;;;;;;;7.97;5.13;;;21.30;68.10;;;;;;5058024;28;20203;-88
2023/05/28 03:15:54;;;;;;;5.93;5.10;;;21.20;68.00;;;;;;5023989;28;20445;-86
2023/05/28 03:18:20;;;;;;;6.00;5.03;;;21.20;68.10;;;;;;5008060;28;20433;-86
2023/05/28 03:20:49;;;;;;;5.90;5.10;;;21.20;68.10;;;;;;5024070;28;20420;-86
2023/05/28 03:23:15;;;;;;;5.77;4.77;;;21.10;68.00;;;;;;5024163;28;20790;-87
2023/05/28 03:25:59;;;;;;;6.00;5.07;;;21.20;68.20;;;;;;5009667;28;20455;-87
2023/05/28 03:28:25;;;;;;;6.70;5.00;;;21.10;68.00;;;;;;5007968;28;20445;-87
2023/05/28 03:31:11;;;;;;;6.57;5.00;;;21.10;68.10;;;;;;5010745;28;20457;-87
2023/05/28 03:33:37;;;;;;;5.10;4.60;;;21.10;68.10;;;;;;5040049;28;20548;-86
2023/05/28 03:36:03;;;;;;;6.57;5.40;;;21.10;68.10;;;;;;5023882;28;20509;-87
2023/05/28 03:38:29;;;;;;;6.87;5.20;;;21.10;68.20;;;;;;5023793;28;20559;-87
2023/05/28 03:40:56;;;;;;;5.77;5.00;;;21.10;68.20;;;;;;5023857;28;20442;-87
2023/05/28 03:43:24;;;;;;;8.07;5.53;;;21.00;68.20;;;;;;5023818;28;20748;-87
2023/05/28 03:45:54;;;;;;;5.30;4.57;;;21.00;68.50;;;;;;5056854;28;20433;-87
2023/05/28 03:48:25;;;;;;;6.00;5.43;;;21.00;68.20;;;;;;5023603;28;20510;-87
2023/05/28 03:50:51;;;;;;;7.03;5.57;;;21.00;68.20;;;;;;5039851;28;20439;-86
2023/05/28 03:53:17;;;;;;;7.97;6.00;;;20.90;68.30;;;;;;5039670;28;20477;-87
2023/05/28 03:55:43;;;;;;;9.07;5.10;;;20.90;68.30;;;;;;5040028;28;20425;-87
2023/05/28 03:58:14;;;;;;;6.60;5.30;;;20.90;68.40;;;;;;5023294;28;20214;-87
2023/05/28 04:00:40;;;;;;;7.17;5.13;;;20.90;68.40;;;;;;5039984;28;20853;-87
2023/05/28 04:03:11;;;;;;;5.97;5.07;;;20.90;68.40;;;;;;5039575;28;20441;-86
2023/05/28 04:05:41;;;;;;;8.47;5.37;;;20.80;68.30;;;;;;5023229;28;20786;-87
2023/05/28 04:08:07;;;;;;;6.80;5.20;;;20.80;68.40;;;;;;5023279;28;20748;-86
2023/05/28 04:10:35;;;;;;;5.53;4.90;;;20.80;68.50;;;;;;5023468;28;20487;-87
2023/05/28 04:13:00;;;;;;;6.20;4.93;;;20.80;68.50;;;;;;5023060;28;20465;-87
2023/05/28 04:15:26;;;;;;;8.30;5.50;;;20.80;68.60;;;;;;5038895;28;20472;-87
2023/05/28 04:17:57;;;;;;;5.63;5.00;;;20.80;68.60;;;;;;5039344;28;20450;-87
2023/05/28 04:20:23;;;;;;;6.37;4.73;;;20.80;68.70;;;;;;5022950;28;20891;-87
2023/05/28 04:22:51;;;;;;;5.87;4.83;;;20.70;68.60;;;;;;5039584;28;20467;-86
2023/05/28 04:25:20;;;;;;;6.40;4.83;;;20.70;68.70;;;;;;5022945;28;20460;-87
2023/05/28 04:27:49;;;;;;;5.90;4.47;;;20.70;68.70;;;;;;5039508;28;20239;-87
2023/05/28 04:30:41;;;;;;;8.60;5.70;;;20.70;68.80;;;;;;5022711;28;20808;-86
2023/05/28 04:33:09;;;;;;;7.80;5.43;;;20.70;68.90;;;;;;5022698;28;20544;-87
2023/05/28 04:35:37;;;;;;;7.73;5.27;;;20.70;69.00;;;;;;5023139;28;20429;-87
2023/05/28 04:38:05;;;;;;;5.30;4.53;;;20.60;68.90;;;;;;5023041;28;20432;-87
2023/05/28 04:40:32;;;;;;;6.77;5.10;;;20.60;69.00;;;;;;5039268;28;20548;-87
2023/05/28 04:42:58;;;;;;;9.13;5.93;;;20.60;69.10;;;;;;5022626;28;20465;-86
2023/05/28 04:45:27;;;;;;;6.53;5.10;;;20.60;69.10;;;;;;5023104;28;20482;-87
2023/05/28 04:47:53;;;;;;;6.87;5.23;;;20.60;69.20;;;;;;5022665;28;20435;-87
2023/05/28 04:50:19;;;;;;;6.10;5.50;;;20.60;69.30;;;;;;5022472;28;20522;-88
2023/05/28 04:52:46;;;;;;;7.37;5.30;;;20.50;69.30;;;;;;5022514;28;20257;-87
2023/05/28 04:55:12;;;;;;;5.70;4.93;;;20.50;69.30;;;;;;5022514;28;20445;-86
2023/05/28 04:57:38;;;;;;;8.03;5.20;;;20.50;69.40;;;;;;5022519;28;20175;-87
2023/05/28 05:00:12;;;;;;;7.00;5.33;;;20.50;69.50;;;;;;5022174;28;20515;-87
2023/05/28 05:02:41;;;;;;;7.37;5.20;;;20.50;69.60;;;;;;5022884;28;20429;-87
2023/05/28 05:05:07;;;;;;;5.80;5.20;;;20.50;69.70;;;;;;5022489;28;20436;-86
2023/05/28 05:07:37;;;;;;;6.93;5.73;;;20.40;69.70;;;;;;5022036;28;20827;-87
2023/05/28 05:10:08;;;;;;;7.03;5.70;;;20.40;69.70;;;;;;5021911;28;21069;-87
2023/05/28 05:12:35;;;;;;;6.20;4.90;;;20.40;69.80;;;;;;5021930;28;20422;-87
2023/05/28 05:15:01;;;;;;;7.20;5.70;;;20.40;69.90;;;;;;5038514;28;20460;-86
2023/05/28 05:17:27;;;;;;;10.80;5.53;;;20.40;70.00;;;;;;5022023;28;20426;-87
2023/05/28 05:19:56;;;;;;;7.20;5.23;;;20.40;70.00;;;;;;5022218;28;20778;-87
2023/05/28 05:22:22;;;;;;;8.23;5.33;;;20.40;70.20;;;;;;5022126;28;20421;-86
2023/05/28 05:24:51;;;;;;;6.00;5.30;;;20.40;70.20;;;;;;5021852;28;20435;-87
2023/05/28 05:27:17;;;;;;;6.83;5.73;;;20.30;70.20;;;;;;5038320;28;20450;-87
2023/05/28 05:29:46;;;;;;;9.70;5.43;;;20.40;70.40;;;;;;5022015;28;20487;-87
2023/05/28 05:32:14;;;;;;;8.10;5.47;;;20.30;70.40;;;;;;5037980;28;20426;-87
2023/05/28 05:34:40;;;;;;;8.97;5.60;;;20.30;70.50;;;;;;5054703;28;20714;-87
2023/05/28 05:37:25;;;;;;;6.00;5.30;;;20.30;70.60;;;;;;5038092;28;20507;-87
2023/05/28 05:40:09;;;;;;;8.40;5.57;;;20.30;70.70;;;;;;5021707;28;20465;-86
2023/05/28 05:42:55;;;;;;;5.87;5.27;;;20.30;70.70;;;;;;5021692;28;20835;-87
2023/05/28 05:45:22;;;;;;;7.93;6.17;;;20.30;70.90;;;;;;5038044;28;20762;-87
2023/05/28 05:47:49;;;;;;;5.90;5.00;;;20.30;71.00;;;;;;5021675;28;20479;-87
2023/05/28 05:50:15;;;;;;;6.00;5.00;;;20.30;71.10;;;;;;5021561;28;20522;-87
2023/05/28 05:52:43;;;;;;;6.90;5.07;;;20.30;72.00;;;;;;5037551;28;20823;-87
2023/05/28 05:55:09;;;;;;;6.37;5.57;;;20.30;71.20;;;;;;5021475;28;20421;-87
2023/05/28 05:57:37;;;;;;;6.60;5.90;;;20.20;71.10;;;;;;5005009;28;20578;-87
2023/05/28 06:00:10;;;;;;;10.60;6.57;;;20.30;71.30;;;;;;5021283;28;20425;-87
2023/05/28 06:02:49;;;;;;;6.67;5.67;;;20.20;71.20;;;;;;5021378;28;20757;-87
2023/05/28 06:05:44;;;;;;;8.10;5.23;;;20.20;71.30;;;;;;5034135;28;20503;-87
2023/05/28 06:08:30;;;;;;;6.90;5.03;;;20.20;71.50;;;;;;5073916;28;20420;-87
2023/05/28 06:11:02;;;;;;;7.47;5.03;;;20.20;71.60;;;;;;5057596;28;20495;-87
2023/05/28 06:13:28;;;;;;;6.00;5.40;;;20.20;71.60;;;;;;5057468;28;20460;-87
2023/05/28 06:15:54;;;;;;;5.97;4.90;;;20.20;71.70;;;;;;5024376;28;20452;-87
2023/05/28 06:18:21;;;;;;;6.90;5.83;;;20.20;71.70;;;;;;5024577;28;20431;-87
2023/05/28 06:20:49;;;;;;;5.70;5.07;;;20.20;71.80;;;;;;5040949;28;20424;-87
2023/05/28 06:23:16;;;;;;;9.47;6.43;;;20.20;71.80;;;;;;5057264;28;20442;-87
2023/05/28 06:25:44;;;;;;;5.63;4.97;;;20.20;71.90;;;;;;5041335;28;20438;-87
2023/05/28 06:28:10;;;;;;;7.23;5.60;;;20.20;72.00;;;;;;5057315;28;20840;-87
2023/05/28 06:30:38;;;;;;;7.67;5.67;;;20.20;72.10;;;;;;5057355;28;20482;-87
2023/05/28 06:33:03;;;;;;;5.33;4.83;;;20.20;72.10;;;;;;5040720;28;20554;-87
2023/05/28 06:35:29;;;;;;;7.00;5.50;;;20.20;72.10;;;;;;5040675;28;20436;-86
2023/05/28 06:37:55;;;;;;;7.40;5.67;;;20.20;72.20;;;;;;5040675;28;20441;-87
2023/05/28 06:40:22;;;;;;;6.47;5.10;;;20.20;72.10;;;;;;5027502;28;20431;-87
2023/05/28 06:42:50;;;;;;;6.57;5.40;;;20.20;72.20;;;;;;5061411;28;20437;-86
2023/05/28 06:45:32;;;;;;;8.03;5.50;;;20.20;72.20;;;;;;5030616;28;20927;-87
2023/05/28 06:48:00;;;;;;;6.40;5.30;;;20.20;72.30;;;;;;5044505;28;20918;-86
2023/05/28 06:50:27;;;;;;;7.33;5.40;;;20.20;72.50;;;;;;5044567;28;20419;-87
2023/05/28 06:52:53;;;;;;;6.37;5.00;;;20.20;72.40;;;;;;5060835;28;20463;-86
2023/05/28 06:55:20;;;;;;;8.17;5.23;;;20.20;72.60;;;;;;5044798;28;20463;-86
2023/05/28 06:58:06;;;;;;;6.10;5.13;;;20.20;72.60;;;;;;5063677;28;20427;-87
2023/05/28 07:01:07;;;;;;;6.40;4.97;;;20.20;72.60;;;;;;5044944;28;20450;-86
2023/05/28 07:03:52;;;;;;;7.33;5.73;;;20.20;72.70;;;;;;5063639;28;20409;-87
2023/05/28 07:06:27;;;;;;;6.17;5.20;;;20.20;73.50;;;;;;5044290;28;20459;-86
2023/05/28 07:08:55;;;;;;;6.33;5.23;;;20.20;72.60;;;;;;5023830;28;20433;-86
2023/05/28 07:11:21;;;;;;;6.03;5.43;;;20.20;72.60;;;;;;5040134;28;20458;-86
2023/05/28 07:13:47;;;;;;;8.17;5.23;;;20.20;72.50;;;;;;5023490;28;20578;-87
2023/05/28 07:16:14;;;;;;;8.00;5.60;;;20.20;72.60;;;;;;5023328;28;20516;-87
2023/05/28 07:18:40;;;;;;;5.97;4.50;;;20.20;72.50;;;;;;5006924;28;20959;-87
2023/05/28 07:21:08;;;;;;;7.33;5.50;;;20.20;72.80;;;;;;5023275;28;20541;-86
2023/05/28 07:23:42;;;;;;;7.40;4.93;;;20.20;72.80;;;;;;5039713;28;20465;-85
2023/05/28 07:26:08;;;;;;;7.43;5.53;;;20.30;72.90;;;;;;5023104;28;20430;-85
2023/05/28 07:28:36;;;;;;;6.33;5.60;;;20.30;72.90;;;;;;5006718;28;20822;-85
2023/05/28 07:31:02;;;;;;;5.30;4.80;;;20.30;72.90;;;;;;5039380;28;20498;-85
2023/05/28 07:33:30;;;;;;;5.30;4.43;;;20.30;72.90;;;;;;5023057;28;20552;-85
2023/05/28 07:35:56;;;;;;;6.90;4.90;;;20.30;73.00;;;;;;5022967;28;20427;-86
2023/05/28 07:38:23;;;;;;;6.50;5.60;;;20.30;73.10;;;;;;5040264;28;20458;-85
2023/05/28 07:40:53;;;;;;;4.83;4.33;;;20.30;73.10;;;;;;5043414;28;20482;-86
2023/05/28 07:43:45;;;;;;;5.53;4.60;;;20.30;73.00;;;;;;5061888;28;20444;-85
2023/05/28 07:46:21;;;;;;;6.70;4.97;;;20.40;73.20;;;;;;5043649;28;20431;-85
2023/05/28 07:48:51;;;;;;;6.30;5.17;;;20.40;73.20;;;;;;5060243;28;20451;-86
2023/05/28 07:51:29;;;;;;;5.53;5.00;;;20.40;73.20;;;;;;5045179;28;20427;-85
2023/05/28 07:54:08;;;;;;;4.93;4.43;;;20.40;73.10;;;;;;5043205;28;20925;-86
2023/05/28 07:56:39;;;;;;;7.57;4.77;;;20.40;73.10;;;;;;5043178;28;20423;-86
2023/05/28 07:59:08;;;;;;;6.40;4.67;;;20.50;73.20;;;;;;5043646;28;20436;-86
2023/05/28 08:01:35;;;;;;;6.17;4.83;;;20.50;73.10;;;;;;5043503;28;20425;-86
2023/05/28 08:04:04;;;;;;;7.50;4.93;;;20.50;73.00;;;;;;5043373;28;20444;-85
2023/05/28 08:06:34;;;;;;;5.67;4.70;;;20.50;72.90;;;;;;5043705;28;20506;-86
2023/05/28 08:09:01;;;;;;;5.83;4.63;;;20.60;73.00;;;;;;5059635;28;20475;-84
2023/05/28 08:11:28;;;;;;;7.67;5.10;;;20.60;73.00;;;;;;5076203;28;20951;-85
2023/05/28 08:13:59;;;;;;;8.93;5.40;;;20.60;72.90;;;;;;5026736;28;20495;-84
2023/05/28 08:16:26;;;;;;;6.83;5.10;;;20.60;72.80;;;;;;5026752;28;20427;-85
2023/05/28 08:19:13;;;;;;;7.37;4.20;;;20.60;72.70;;;;;;5043125;28;20484;-86
2023/05/28 08:21:39;;;;;;;6.50;4.80;;;20.70;72.70;;;;;;5059573;28;20761;-86
2023/05/28 08:24:06;;;;;;;6.33;4.57;;;20.70;72.60;;;;;;5042792;28;20451;-87
2023/05/28 08:26:32;;;;;;;6.93;4.73;;;20.70;72.50;;;;;;5059511;28;20480;-85
2023/05/28 08:28:58;;;;;;;5.53;3.87;;;20.70;72.50;;;;;;5059374;28;20439;-84
2023/05/28 08:31:25;;;;;;;6.53;4.50;;;20.70;72.40;;;;;;5042755;28;20421;-85
2023/05/28 08:34:14;;;;;;;5.73;4.13;;;20.80;72.40;;;;;;5053408;28;20963;-85
2023/05/28 08:36:42;;;;;;;8.60;4.70;;;20.80;72.20;;;;;;5043042;28;20478;-85
2023/05/28 08:39:12;;;;;;;5.70;4.70;;;20.80;72.20;;;;;;5042751;28;20421;-84
2023/05/28 08:41:45;;;;;;;6.30;4.60;;;20.90;72.20;;;;;;5042384;28;20412;-86
2023/05/28 08:44:14;;;;;;;7.13;4.40;;;20.90;73.00;;;;;;5059143;28;20522;-85
2023/05/28 08:46:41;;;;;;;4.33;3.93;;;20.90;72.20;;;;;;5042240;28;20473;-85
2023/05/28 08:49:44;;;;;;;5.23;4.40;;;20.90;72.20;;;;;;5054944;28;20455;-85
2023/05/28 08:52:12;;;;;;;4.80;4.10;;;21.00;73.10;;;;;;5058904;28;20598;-86
2023/05/28 08:54:39;;;;;;;5.77;4.73;;;21.00;72.30;;;;;;5041947;28;20980;-85
2023/05/28 08:57:06;;;;;;;5.70;4.03;;;21.00;72.30;;;;;;5042343;28;20524;-84
2023/05/28 08:59:39;;;;;;;6.57;4.30;;;21.00;72.40;;;;;;5042329;28;20431;-86
2023/05/28 09:02:08;;;;;;;5.47;4.17;;;21.10;72.50;;;;;;5058169;28;20886;-85
2023/05/28 09:04:34;;;;;;;5.57;4.13;;;21.10;72.50;;;;;;5058554;28;20428;-84
2023/05/28 09:07:00;;;;;;;9.57;4.40;;;21.10;72.40;;;;;;5058619;28;20440;-86
2023/05/28 09:09:40;;;;;;;7.10;4.60;;;21.20;72.60;;;;;;5041715;28;20905;-87
2023/05/28 09:12:10;;;;;;;5.00;4.20;;;21.20;72.50;;;;;;5025566;28;20466;-85
2023/05/28 09:14:40;;;;;;;5.10;3.80;;;21.20;72.50;;;;;;5041892;28;20497;-85
2023/05/28 09:17:13;;;;;;;7.60;4.23;;;21.30;72.60;;;;;;5042004;28;20420;-85
2023/05/28 09:19:51;;;;;;;8.00;4.47;;;21.30;72.60;;;;;;5025720;28;20449;-85
2023/05/28 09:22:20;;;;;;;5.30;4.10;;;21.30;72.50;;;;;;5041743;28;20463;-86
2023/05/28 09:24:54;;;;;;;9.20;4.57;;;21.40;72.60;;;;;;5026550;28;20949;-84
2023/05/28 09:27:44;;;;;;;4.97;3.90;;;21.40;72.40;;;;;;5058072;28;20462;-85
2023/05/28 09:30:11;;;;;;;7.20;4.30;;;21.50;72.50;;;;;;5058207;28;20512;-86
2023/05/28 09:33:11;;;;;;;6.13;4.10;;;21.50;72.50;;;;;;5041336;28;21020;-86
2023/05/28 09:35:39;;;;;;;9.07;4.77;;;21.50;72.40;;;;;;5038743;28;20447;-86
2023/05/28 09:38:11;;;;;;;7.47;4.00;;;21.60;72.50;;;;;;5057658;28;20450;-85
2023/05/28 09:40:41;;;;;;;5.63;4.00;;;21.60;72.40;;;;;;5057752;28;20435;-85
2023/05/28 09:43:08;;;;;;;5.90;4.50;;;21.60;72.40;;;;;;5024867;28;20448;-86
2023/05/28 09:45:39;;;;;;;6.20;4.27;;;21.70;72.60;;;;;;5041372;28;20437;-85
2023/05/28 09:48:05;;;;;;;6.40;4.67;;;21.70;72.50;;;;;;5025108;28;21101;-84
2023/05/28 09:50:31;;;;;;;6.80;4.53;;;21.80;72.50;;;;;;5028823;28;20433;-84
2023/05/28 09:52:58;;;;;;;5.83;4.23;;;21.80;72.30;;;;;;5055244;28;20195;-85
2023/05/28 09:55:28;;;;;;;6.17;3.90;;;21.80;72.10;;;;;;5037789;28;20445;-85
2023/05/28 09:58:03;;;;;;;5.83;4.20;;;21.90;72.00;;;;;;5037923;28;20529;-85
2023/05/28 10:00:35;;;;;;;7.57;4.50;;;21.90;71.90;;;;;;5021269;28;20445;-85
2023/05/28 10:03:28;;;;;;;5.10;4.57;;;22.00;71.90;;;;;;5055052;28;20828;-84
2023/05/28 10:06:01;;;;;;;6.50;4.43;;;22.00;71.80;;;;;;5037475;28;20524;-84
2023/05/28 10:08:27;;;;;;;8.33;3.93;;;22.10;71.70;;;;;;5021194;28;20433;-85
2023/05/28 10:10:54;;;;;;;5.80;4.47;;;22.10;71.60;;;;;;5037565;28;20422;-85
2023/05/28 10:13:23;;;;;;;5.97;4.40;;;22.10;71.50;;;;;;5020002;28;20848;-87
2023/05/28 10:16:00;;;;;;;7.17;4.37;;;22.20;71.50;;;;;;5015436;28;20416;-85
2023/05/28 10:18:29;;;;;;;6.17;4.40;;;22.20;71.50;;;;;;5016193;28;20516;-83
2023/05/28 10:20:56;;;;;;;5.50;3.90;;;22.30;71.50;;;;;;5021047;28;20426;-87
2023/05/28 10:23:25;;;;;;;5.63;4.20;;;22.30;71.40;;;;;;5009656;28;20467;-85
2023/05/28 10:25:56;;;;;;;5.83;3.90;;;22.30;71.90;;;;;;5018065;28;20435;-84
2023/05/28 10:28:22;;;;;;;5.67;4.03;;;22.40;71.10;;;;;;5003464;28;20435;-87
2023/05/28 10:31:04;;;;;;;6.40;4.30;;;22.40;70.90;;;;;;5054621;28;20893;-85
2023/05/28 10:33:37;;;;;;;8.33;4.67;;;22.50;70.90;;;;;;5036875;28;20454;-85
2023/05/28 10:36:10;;;;;;;5.80;4.50;;;22.50;70.70;;;;;;5037303;28;20816;-85
2023/05/28 10:39:06;;;;;;;5.90;4.03;;;22.50;70.80;;;;;;5020893;28;20434;-86
2023/05/28 10:41:34;;;;;;;3.80;3.50;;;22.60;70.80;;;;;;5037558;28;20987;-85
2023/05/28 10:44:10;;;;;;;5.83;4.00;;;22.60;70.70;;;;;;5020731;28;20798;-85
2023/05/28 10:46:38;;;;;;;5.07;4.20;;;22.70;70.70;;;;;;5036832;28;20775;-87
2023/05/28 10:49:09;;;;;;;5.30;4.07;;;22.70;70.70;;;;;;5037464;28;20422;-85
2023/05/28 10:52:02;;;;;;;6.10;4.60;;;22.70;70.60;;;;;;5037341;28;20441;-86
2023/05/28 10:54:37;;;;;;;5.40;3.83;;;22.80;70.70;;;;;;5000872;28;20471;-86
2023/05/28 10:57:08;;;;;;;4.33;3.47;;;22.80;70.40;;;;;;5026313;28;20818;-87
2023/05/28 10:59:38;;;;;;;5.10;4.00;;;22.90;70.50;;;;;;5036896;28;20773;-86
2023/05/28 11:02:07;;;;;;;6.10;3.70;;;23.00;70.20;;;;;;5036922;28;20472;-85
2023/05/28 11:04:36;;;;;;;6.57;4.23;;;23.00;70.00;;;;;;5053947;28;20963;-85
2023/05/28 11:07:02;;;;;;;4.80;4.00;;;23.00;69.70;;;;;;5004014;28;20439;-86
2023/05/28 11:09:30;;;;;;;7.57;4.10;;;23.10;69.60;;;;;;5020781;28;20548;-86
2023/05/28 11:12:01;;;;;;;6.57;5.07;;;23.10;69.30;;;;;;5020350;28;20434;-85
2023/05/28 11:14:38;;;;;;;4.63;3.73;;;23.10;69.10;;;;;;5036862;28;20461;-86
2023/05/28 11:17:09;;;;;;;5.83;3.90;;;23.20;69.10;;;;;;5019758;28;20769;-84
2023/05/28 11:19:44;;;;;;;6.10;4.17;;;23.20;68.90;;;;;;5020547;28;20723;-85
2023/05/28 11:22:18;;;;;;;5.07;4.57;;;23.20;68.80;;;;;;5020649;28;20457;-85
2023/05/28 11:25:08;;;;;;;4.83;3.87;;;23.30;68.80;;;;;;5054315;28;20407;-85
2023/05/28 11:27:53;;;;;;;12.90;4.10;;;23.30;68.80;;;;;;5023929;28;20480;-88
2023/05/28 11:30:28;;;;;;;5.63;3.70;;;23.40;64.00;;;;;;5041319;28;20428;-83
2023/05/28 11:32:54;;;;;;;5.70;3.80;;;23.40;63.90;;;;;;5040095;28;20775;-83
2023/05/28 11:35:20;;;;;;;5.80;3.97;;;23.50;64.10;;;;;;5040183;28;20860;-84
2023/05/28 11:37:47;;;;;;;5.40;3.67;;;23.60;64.50;;;;;;5023846;28;20472;-84
2023/05/28 11:40:14;;;;;;;5.53;3.90;;;23.60;64.60;;;;;;5022787;28;20184;-83
2023/05/28 11:42:44;;;;;;;4.93;4.43;;;23.70;64.90;;;;;;5049900;28;20753;-87
2023/05/28 11:45:11;;;;;;;5.83;3.80;;;23.70;64.90;;;;;;5004127;28;20538;-83
2023/05/28 11:47:42;;;;;;;6.17;3.37;;;23.70;64.70;;;;;;5008179;28;20424;-82
2023/05/28 11:50:10;;;;;;;4.07;3.40;;;23.80;64.80;;;;;;5047964;28;20445;-84
2023/05/28 11:52:38;;;;;;;5.40;3.83;;;23.80;64.90;;;;;;5056858;28;20905;-83
2023/05/28 11:55:05;;;;;;;7.80;3.53;;;23.80;65.00;;;;;;5023054;28;20422;-82
2023/05/28 11:57:39;;;;;;;4.90;3.40;;;23.90;65.20;;;;;;5039203;28;20780;-83
2023/05/28 12:00:15;;;;;;;7.13;3.87;;;23.90;65.40;;;;;;5031044;28;20427;-84
2023/05/28 12:02:53;;;;;;;5.30;4.10;;;23.90;65.50;;;;;;5019860;28;20466;-83
2023/05/28 12:05:20;;;;;;;4.80;3.50;;;24.00;65.80;;;;;;5034928;28;20418;-82
2023/05/28 12:07:50;;;;;;;8.67;4.47;;;24.00;65.80;;;;;;5040041;28;20430;-86
2023/05/28 12:10:20;;;;;;;4.83;3.70;;;24.00;65.90;;;;;;5039443;28;20423;-82
2023/05/28 12:12:51;;;;;;;6.83;3.80;;;24.10;66.10;;;;;;5039350;28;20434;-82
2023/05/28 12:15:24;;;;;;;4.60;3.70;;;24.10;66.10;;;;;;5011437;28;20497;-83
2023/05/28 12:18:00;;;;;;;6.07;4.20;;;24.10;66.10;;;;;;5037183;28;20418;-82
2023/05/28 12:20:34;;;;;;;4.60;3.50;;;24.20;66.20;;;;;;5017252;28;20443;-83
2023/05/28 12:23:13;;;;;;;5.20;4.00;;;24.20;66.30;;;;;;5031632;28;20492;-83
2023/05/28 12:25:48;;;;;;;5.10;3.70;;;24.20;66.20;;;;;;5007613;28;20478;-83
2023/05/28 12:28:21;;;;;;;4.73;3.60;;;24.20;65.90;;;;;;5022414;28;20961;-83
2023/05/28 12:30:50;;;;;;;4.47;3.70;;;24.20;65.70;;;;;;5006536;28;20557;-85
2023/05/28 12:33:19;;;;;;;4.90;3.73;;;24.30;65.70;;;;;;5006350;28;20539;-83
2023/05/28 12:35:48;;;;;;;8.20;4.50;;;24.30;65.80;;;;;;5065866;28;20825;-83
2023/05/28 12:38:18;;;;;;;4.70;3.97;;;24.40;65.90;;;;;;5044223;28;20423;-82
2023/05/28 12:40:43;;;;;;;6.30;4.27;;;24.40;65.70;;;;;;5056458;28;20411;-83
2023/05/28 12:43:09;;;;;;;6.57;4.00;;;24.40;65.70;;;;;;5009250;28;20477;-83
2023/05/28 12:45:40;;;;;;;5.27;3.70;;;24.40;65.70;;;;;;5003100;28;20181;-83
2023/05/28 12:48:08;;;;;;;4.57;3.80;;;24.40;65.60;;;;;;5031780;28;20470;-83
2023/05/28 12:50:37;;;;;;;6.57;4.47;;;24.40;65.50;;;;;;5056274;28;20430;-84
2023/05/28 12:53:05;;;;;;;5.57;3.80;;;24.50;65.80;;;;;;5022400;28;20438;-82
2023/05/28 12:55:32;;;;;;;6.57;4.47;;;24.50;65.80;;;;;;5055996;28;20828;-84
2023/05/28 12:57:58;;;;;;;4.17;3.53;;;24.50;65.50;;;;;;5038806;28;20429;-83
2023/05/28 13:00:26;;;;;;;4.13;3.23;;;24.60;65.40;;;;;;5054805;28;20533;-83